Time;durP1;ratioP1;P1;durP2;ratioP2;P2;SDS_P1;SDS_P2;PMS_P1;PMS_P2;Temp;Humidity;BMP_temperature;BMP_pressure;BME280_temperature;BME280_humidity;BME280_pressure;Samples;Min_cycle;Max_cycle;Signal;HPM_P1;HPM_P2
2023/02/04 00:00:44;;;;;;;14.90;7.50;;;9.00;99.90;;;8.15;98.62;103405.50;5173630;23;20501;-79
2023/02/04 00:02:45;;;;;;;15.35;6.93;;;9.00;99.90;;;8.08;99.21;103393.56;5171913;23;20523;-79
2023/02/04 00:04:46;;;;;;;11.90;5.78;;;9.00;99.90;;;8.07;99.79;103387.44;5173500;23;20008;-79
2023/02/04 00:06:47;;;;;;;14.80;6.30;;;9.00;99.90;;;8.09;99.91;103388.25;5173568;23;20061;-79
2023/02/04 00:08:48;;;;;;;32.33;13.27;;;9.00;99.90;;;8.02;99.65;103368.44;5173546;23;20004;-79
2023/02/04 00:10:49;;;;;;;27.90;11.90;;;9.00;99.90;;;8.14;100.00;103395.91;5146780;23;20314;-79
2023/02/04 00:12:49;;;;;;;36.03;13.32;;;9.00;99.90;;;8.16;100.00;103388.78;5173005;23;20015;-79
2023/02/04 00:14:50;;;;;;;36.53;15.80;;;9.00;99.90;;;8.04;100.00;103370.97;5173449;23;20004;-79
2023/02/04 00:16:51;;;;;;;31.95;14.38;;;9.00;99.90;;;8.11;100.00;103381.13;5173495;23;20488;-79
2023/02/04 00:18:52;;;;;;;34.38;15.43;;;9.00;99.90;;;8.11;100.00;103381.13;5146926;23;20035;-79
2023/02/04 00:20:53;;;;;;;28.27;14.32;;;9.00;99.90;;;8.02;100.00;103365.81;5171894;23;20016;-79
2023/02/04 00:22:55;;;;;;;24.45;12.80;;;9.00;99.90;;;8.05;100.00;103370.06;5146741;23;20009;-79
2023/02/04 00:24:56;;;;;;;34.65;17.02;;;9.00;99.90;;;8.15;100.00;103381.84;5146606;23;20140;-79
2023/02/04 00:26:56;;;;;;;30.77;13.63;;;9.00;99.90;;;8.07;100.00;103365.56;5173630;23;20004;-79
2023/02/04 00:28:57;;;;;;;20.95;11.45;;;9.00;99.90;;;8.10;100.00;103368.03;5173394;23;20024;-79
2023/02/04 00:30:58;;;;;;;25.17;10.77;;;9.00;99.90;;;8.04;100.00;103358.69;5146986;23;20012;-79
2023/02/04 00:32:59;;;;;;;13.25;6.45;;;9.00;99.90;;;8.00;100.00;103354.53;5173356;23;20034;-79
2023/02/04 00:35:03;;;;;;;8.48;5.15;;;9.00;99.90;;;8.11;100.00;103375.88;5146748;23;20000;-79
2023/02/04 00:37:04;;;;;;;10.50;5.75;;;9.00;99.90;;;8.12;100.00;103371.47;5173338;23;20055;-79
2023/02/04 00:39:05;;;;;;;9.38;5.07;;;9.00;99.90;;;8.14;100.00;103374.88;5147003;23;20001;-79
2023/02/04 00:41:06;;;;;;;8.18;4.90;;;8.90;99.90;;;8.16;100.00;103375.63;5173286;23;20027;-79
2023/02/04 00:43:07;;;;;;;11.23;6.90;;;9.00;99.90;;;8.08;100.00;103369.91;5146872;23;20000;-79
2023/02/04 00:45:10;;;;;;;18.15;8.88;;;9.00;99.90;;;8.12;100.00;103374.94;5146686;23;20000;-79
2023/02/04 00:47:11;;;;;;;21.20;10.93;;;8.90;99.90;;;8.07;100.00;103376.09;5146756;23;20368;-79
2023/02/04 00:49:12;;;;;;;14.57;7.43;;;8.90;99.90;;;8.08;100.00;103380.41;5146758;23;20275;-79
2023/02/04 00:51:13;;;;;;;13.98;6.93;;;8.90;99.90;;;7.95;100.00;103371.44;5173006;23;20004;-79
2023/02/04 00:53:14;;;;;;;13.80;6.85;;;8.90;99.90;;;7.93;100.00;103374.16;5172973;23;20001;-78
2023/02/04 00:55:17;;;;;;;15.15;8.20;;;8.90;99.90;;;7.99;100.00;103370.34;5146654;23;20013;-79
2023/02/04 00:57:18;;;;;;;12.02;6.43;;;8.90;99.90;;;8.02;100.00;103383.34;5146762;23;20008;-79
2023/02/04 00:59:19;;;;;;;14.13;6.55;;;8.90;99.90;;;7.95;100.00;103374.91;5121889;23;20015;-79
2023/02/04 01:01:20;;;;;;;8.25;5.10;;;8.90;99.90;;;7.99;100.00;103386.13;5146529;23;20005;-79
2023/02/04 01:03:20;;;;;;;9.90;5.00;;;8.90;99.90;;;7.91;100.00;103369.91;5121638;23;20076;-79
2023/02/04 01:05:21;;;;;;;8.55;4.47;;;8.80;99.90;;;7.95;100.00;103381.94;5173151;23;20058;-79
2023/02/04 01:07:22;;;;;;;8.15;3.95;;;8.90;99.90;;;7.94;100.00;103389.00;5146775;23;20009;-79
2023/02/04 01:09:23;;;;;;;9.90;4.22;;;8.80;99.90;;;7.87;100.00;103379.69;5146595;23;20087;-79
2023/02/04 01:11:24;;;;;;;7.95;3.63;;;8.80;99.90;;;7.89;100.00;103376.97;5146445;23;20001;-79
2023/02/04 01:13:25;;;;;;;6.10;3.67;;;8.80;99.90;;;7.85;100.00;103372.81;5173063;23;20011;-79
2023/02/04 01:15:26;;;;;;;6.85;3.47;;;8.80;99.90;;;7.94;100.00;103377.63;5171473;23;20001;-79
2023/02/04 01:17:27;;;;;;;7.07;3.55;;;8.80;99.90;;;7.86;100.00;103375.34;5121500;23;20012;-79
2023/02/04 01:19:28;;;;;;;6.18;3.33;;;8.80;99.90;;;7.88;100.00;103372.66;5173031;23;20008;-79
2023/02/04 01:21:29;;;;;;;5.68;2.85;;;8.80;99.90;;;7.84;100.00;103365.84;5172704;23;20011;-79
2023/02/04 01:23:30;;;;;;;7.25;3.72;;;8.80;99.90;;;7.84;100.00;103366.69;5173200;23;20008;-79
2023/02/04 01:25:31;;;;;;;7.05;4.10;;;8.80;99.90;;;7.88;100.00;103377.94;5191882;22;20015;-79
2023/02/04 01:27:32;;;;;;;5.97;3.30;;;8.80;99.90;;;7.96;100.00;103391.53;5146602;23;20093;-79
2023/02/04 01:29:33;;;;;;;5.32;3.13;;;8.80;99.90;;;7.96;100.00;103391.53;5198315;22;20049;-79
2023/02/04 01:31:34;;;;;;;4.57;2.63;;;8.80;99.90;;;7.91;100.00;103390.91;5171699;23;20003;-79
2023/02/04 01:33:35;;;;;;;4.20;2.80;;;8.80;99.90;;;7.91;100.00;103383.88;5146482;23;20031;-79
2023/02/04 01:35:36;;;;;;;5.88;3.55;;;8.80;99.90;;;7.94;100.00;103388.13;5171487;23;20027;-79
2023/02/04 01:37:36;;;;;;;7.68;4.35;;;8.80;99.90;;;7.90;100.00;103381.31;5198363;22;20011;-79
2023/02/04 01:39:37;;;;;;;12.65;5.32;;;8.70;99.90;;;7.91;100.00;103389.16;5171686;23;20008;-79
2023/02/04 01:41:39;;;;;;;8.45;4.32;;;8.70;99.90;;;7.90;100.00;103390.06;5198320;22;20004;-79
2023/02/04 01:43:40;;;;;;;5.38;3.47;;;8.70;99.90;;;7.80;100.00;103373.88;5198289;22;20088;-79
2023/02/04 01:45:41;;;;;;;4.70;3.25;;;8.70;99.90;;;7.80;100.00;103376.50;5198581;22;20319;-79
2023/02/04 01:47:43;;;;;;;5.20;3.00;;;8.70;99.90;;;7.89;100.00;103390.13;5146213;23;20013;-79
2023/02/04 01:49:45;;;;;;;6.32;3.38;;;8.70;99.90;;;7.80;100.00;103375.66;5198470;22;20011;-79
2023/02/04 01:51:48;;;;;;;7.88;3.50;;;8.70;99.90;;;7.86;100.00;103385.00;5171336;22;20068;-79
2023/02/04 01:53:48;;;;;;;5.80;3.92;;;8.70;99.90;;;7.87;100.00;103384.09;5198328;22;20427;-79
2023/02/04 01:55:50;;;;;;;5.60;3.42;;;8.70;99.90;;;7.86;100.00;103388.50;5198309;22;20000;-79
2023/02/04 01:57:57;;;;;;;4.45;2.95;;;8.80;99.90;;;7.83;100.00;103372.88;5171483;23;20007;-79
2023/02/04 01:59:58;;;;;;;5.63;3.65;;;8.80;99.90;;;7.97;100.00;103395.88;5172590;22;20464;-79
2023/02/04 02:01:59;;;;;;;5.05;3.65;;;8.80;99.90;;;7.92;100.00;103384.72;5171278;23;20015;-79
2023/02/04 02:04:00;;;;;;;5.18;3.55;;;8.80;99.90;;;7.92;100.00;103384.72;5198268;22;20042;-79
2023/02/04 02:06:01;;;;;;;4.88;2.90;;;8.90;99.90;;;8.01;100.00;103394.78;5198100;22;20010;-79
2023/02/04 02:08:05;;;;;;;4.57;3.30;;;8.90;99.90;;;8.00;100.00;103387.84;5171643;23;20012;-79
2023/02/04 02:10:09;;;;;;;3.92;3.20;;;8.90;99.90;;;8.01;100.00;103389.53;5171729;22;20054;-79
2023/02/04 02:12:10;;;;;;;5.05;3.30;;;8.90;99.90;;;8.07;100.00;103397.09;5171610;22;20432;-79
2023/02/04 02:14:12;;;;;;;3.80;2.90;;;8.90;99.90;;;8.02;100.00;103393.88;5171025;23;20000;-79
2023/02/04 02:16:12;;;;;;;3.95;3.20;;;8.90;99.90;;;7.96;100.00;103378.41;5146283;23;20015;-79
2023/02/04 02:18:14;;;;;;;4.97;3.38;;;8.90;99.90;;;8.04;100.00;103397.25;5145907;23;20005;-79
2023/02/04 02:20:19;;;;;;;4.35;3.40;;;8.90;99.90;;;7.99;100.00;103391.38;5145943;23;20004;-79
2023/02/04 02:22:31;;;;;;;5.45;3.17;;;8.90;99.90;;;7.99;100.00;103383.50;5170994;23;20008;-79
2023/02/04 02:24:34;;;;;;;5.90;3.10;;;8.90;99.90;;;7.96;100.00;103387.13;5165457;23;20064;-79
2023/02/04 02:26:35;;;;;;;5.05;3.83;;;8.90;99.90;;;7.97;100.00;103390.63;5146288;23;20012;-79
2023/02/04 02:28:36;;;;;;;4.20;2.80;;;8.90;99.90;;;7.94;100.00;103386.38;5146240;23;20031;-79
2023/02/04 02:30:37;;;;;;;6.00;3.72;;;8.90;99.90;;;7.97;100.00;103393.25;5146092;23;20004;-79
2023/02/04 02:32:38;;;;;;;6.45;3.65;;;8.90;99.90;;;8.02;100.00;103407.00;5146176;23;20001;-79
2023/02/04 02:34:41;;;;;;;4.03;3.00;;;8.90;99.90;;;7.97;100.00;103393.25;5146882;23;20028;-79
2023/02/04 02:36:43;;;;;;;4.53;3.15;;;8.90;99.90;;;7.96;100.00;103395.03;5174149;23;20313;-79
2023/02/04 02:38:44;;;;;;;6.93;3.97;;;8.90;99.90;;;8.09;100.00;103417.16;5147240;23;20016;-79
2023/02/04 02:40:46;;;;;;;4.60;3.10;;;8.90;99.90;;;8.02;100.00;103401.75;5174284;23;20008;-79
2023/02/04 02:42:51;;;;;;;8.32;3.72;;;8.90;99.90;;;8.07;100.00;103407.63;5147719;23;20441;-79
2023/02/04 02:44:53;;;;;;;5.88;3.42;;;8.90;99.90;;;7.98;100.00;103401.03;5147897;23;20092;-79
2023/02/04 02:46:54;;;;;;;4.70;3.15;;;8.90;99.90;;;7.92;100.00;103392.59;5122696;23;20016;-79
2023/02/04 02:48:55;;;;;;;5.18;3.22;;;8.80;99.90;;;7.94;100.00;103396.03;5147645;23;20135;-79
2023/02/04 02:50:56;;;;;;;4.13;3.22;;;8.80;99.90;;;7.89;100.00;103392.75;5122616;23;20016;-79
2023/02/04 02:52:57;;;;;;;7.97;3.53;;;8.80;99.90;;;7.81;100.00;103382.63;5147498;23;20004;-79
2023/02/04 02:54:58;;;;;;;6.45;4.03;;;8.80;99.90;;;7.93;100.00;103403.06;5147478;23;20008;-79
2023/02/04 02:56:59;;;;;;;3.88;2.97;;;8.80;99.90;;;7.85;100.00;103389.44;5174458;23;20008;-79
2023/02/04 02:59:20;;;;;;;4.75;3.08;;;8.80;99.90;;;7.86;100.00;103391.13;5147483;23;20004;-79
2023/02/04 03:01:21;;;;;;;5.53;3.20;;;8.80;99.90;;;7.93;100.00;103400.41;5173972;22;20027;-79
2023/02/04 03:03:28;;;;;;;5.13;3.72;;;8.80;99.90;;;7.95;100.00;103401.19;5147604;23;20013;-79
2023/02/04 03:05:34;;;;;;;4.70;3.03;;;8.80;99.90;;;7.85;100.00;103383.34;5147634;23;20451;-79
2023/02/04 03:07:35;;;;;;;5.90;3.08;;;8.80;99.90;;;7.89;100.00;103395.38;5147914;23;20005;-79
2023/02/04 03:09:36;;;;;;;5.40;3.30;;;8.80;99.90;;;7.92;100.00;103403.97;5147053;23;20140;-78
2023/02/04 03:11:37;;;;;;;4.53;3.20;;;8.80;99.90;;;7.86;100.00;103395.53;5147498;23;20000;-79
2023/02/04 03:13:39;;;;;;;5.07;3.58;;;8.80;99.90;;;7.84;100.00;103392.13;5174038;22;20075;-79
2023/02/04 03:15:41;;;;;;;6.72;3.83;;;8.80;99.90;;;7.88;100.00;103391.06;5174019;23;20427;-78
2023/02/04 03:17:43;;;;;;;4.85;3.67;;;8.80;99.90;;;7.85;100.00;103388.59;5147414;23;20099;-79
2023/02/04 03:19:44;;;;;;;4.72;3.40;;;8.80;99.90;;;7.90;100.00;103397.94;5174054;23;20031;-78
2023/02/04 03:21:45;;;;;;;4.78;3.38;;;8.80;99.90;;;7.91;100.00;103388.28;5173845;23;20007;-79
2023/02/04 03:23:46;;;;;;;5.05;3.35;;;8.80;99.90;;;7.90;100.00;103387.44;5147414;23;20447;-79
2023/02/04 03:25:47;;;;;;;5.10;3.38;;;8.80;99.90;;;7.88;100.00;103385.81;5195995;22;20031;-79
2023/02/04 03:27:48;;;;;;;4.25;3.22;;;8.80;99.90;;;7.90;100.00;103397.09;5147639;23;20009;-79
2023/02/04 03:29:49;;;;;;;5.07;3.08;;;8.80;99.90;;;7.88;100.00;103394.56;5199123;22;20007;-79
2023/02/04 03:31:50;;;;;;;3.88;2.85;;;8.80;99.90;;;7.95;100.00;103408.22;5172629;23;20000;-79
2023/02/04 03:33:51;;;;;;;5.40;3.85;;;8.80;99.90;;;7.88;100.00;103401.56;5172218;23;20051;-79
2023/02/04 03:35:52;;;;;;;5.05;3.63;;;8.80;99.90;;;7.82;100.00;103400.09;5172196;23;20043;-79
2023/02/04 03:37:53;;;;;;;6.68;3.75;;;8.80;99.90;;;7.90;100.00;103412.84;5199214;22;20458;-79
2023/02/04 03:39:54;;;;;;;6.68;4.47;;;8.80;99.90;;;7.89;100.00;103406.75;5172234;23;20004;-79
2023/02/04 03:41:54;;;;;;;4.72;3.47;;;8.80;99.90;;;7.85;100.00;103407.84;5199089;22;20046;-79
2023/02/04 03:43:55;;;;;;;4.95;3.47;;;8.80;99.90;;;7.88;100.00;103410.31;5172335;23;20012;-79
2023/02/04 03:45:56;;;;;;;4.55;3.53;;;8.80;99.90;;;7.91;100.00;103409.31;5198979;22;20004;-79
2023/02/04 03:47:57;;;;;;;4.18;2.92;;;8.80;99.90;;;7.90;100.00;103410.22;5199211;22;20010;-79
2023/02/04 03:49:58;;;;;;;4.30;3.45;;;8.70;99.90;;;7.77;100.00;103388.94;5146902;23;20013;-79
2023/02/04 03:51:59;;;;;;;4.95;3.45;;;8.70;99.90;;;7.89;100.00;103411.16;5172052;23;20501;-79
2023/02/04 03:54:00;;;;;;;5.18;3.75;;;8.70;99.90;;;7.76;100.00;103389.88;5197513;22;20055;-79
2023/02/04 03:56:00;;;;;;;6.35;4.15;;;8.70;99.90;;;7.85;100.00;103405.22;5172298;23;20011;-79
2023/02/04 03:58:03;;;;;;;6.15;3.75;;;8.70;99.90;;;7.72;100.00;103389.16;5172363;23;20000;-79
2023/02/04 04:00:04;;;;;;;4.28;3.25;;;8.70;99.90;;;7.82;100.00;103412.38;5146884;23;20012;-79
2023/02/04 04:02:05;;;;;;;5.13;3.85;;;8.60;99.90;;;7.75;100.00;103409.19;5172270;23;20008;-79
2023/02/04 04:04:06;;;;;;;6.15;4.22;;;8.60;99.90;;;7.73;100.00;103409.28;5172101;23;20058;-79
2023/02/04 04:06:08;;;;;;;7.78;4.10;;;8.60;99.90;;;7.71;100.00;103411.09;5146612;23;20008;-79
2023/02/04 04:08:09;;;;;;;5.30;3.63;;;8.60;99.90;;;7.67;100.00;103404.31;5147444;22;20012;-79
2023/02/04 04:10:11;;;;;;;6.75;4.35;;;8.60;99.90;;;7.64;100.00;103393.09;5172276;23;20067;-79
2023/02/04 04:12:11;;;;;;;5.72;3.28;;;8.60;99.90;;;7.69;100.00;103405.06;5172133;23;20079;-79
2023/02/04 04:14:12;;;;;;;5.85;4.00;;;8.60;99.90;;;7.67;100.00;103403.44;5172084;23;20015;-79
2023/02/04 04:16:13;;;;;;;7.80;5.20;;;8.60;99.90;;;7.69;100.00;103402.44;5171723;23;20407;-79
2023/02/04 04:18:14;;;;;;;4.88;3.88;;;8.60;99.90;;;7.61;100.00;103393.22;5171866;23;20048;-79
2023/02/04 04:20:15;;;;;;;6.00;3.70;;;8.60;99.90;;;7.73;100.00;103411.91;5146350;23;20004;-79
2023/02/04 04:22:16;;;;;;;7.07;4.07;;;8.60;99.90;;;7.69;100.00;103398.97;5198775;22;20007;-79
2023/02/04 04:24:17;;;;;;;5.32;3.45;;;8.60;99.90;;;7.73;100.00;103406.66;5146577;23;20013;-79
2023/02/04 04:26:18;;;;;;;7.68;3.85;;;8.60;99.90;;;7.76;100.00;103410.91;5198758;22;20370;-79
2023/02/04 04:28:19;;;;;;;7.15;3.85;;;8.60;99.90;;;7.63;100.00;103389.59;5198841;22;20008;-79
2023/02/04 04:30:20;;;;;;;5.78;4.05;;;8.60;99.90;;;7.66;100.00;103397.34;5146428;23;20357;-79
2023/02/04 04:32:21;;;;;;;5.30;3.60;;;8.60;99.90;;;7.69;100.00;103405.06;5172039;23;20011;-79
2023/02/04 04:34:22;;;;;;;4.80;3.38;;;8.60;99.90;;;7.62;100.00;103390.53;5171884;23;20260;-79
2023/02/04 04:36:23;;;;;;;4.45;3.17;;;8.60;99.90;;;7.63;100.00;103397.47;5198599;22;20459;-79
2023/02/04 04:38:24;;;;;;;5.25;3.85;;;8.60;99.90;;;7.70;100.00;103411.19;5172126;23;20003;-79
2023/02/04 04:40:25;;;;;;;6.28;3.55;;;8.60;99.90;;;7.62;100.00;103403.66;5198882;22;20007;-79
2023/02/04 04:42:26;;;;;;;7.10;3.80;;;8.60;99.90;;;7.70;100.00;103422.56;5172137;23;20008;-79
2023/02/04 04:44:26;;;;;;;5.47;3.90;;;8.60;99.90;;;7.64;100.00;103412.34;5198673;22;20007;-79
2023/02/04 04:46:27;;;;;;;6.05;4.07;;;8.60;99.90;;;7.67;100.00;103430.56;5146931;23;20005;-79
2023/02/04 04:48:28;;;;;;;5.80;3.50;;;8.60;99.90;;;7.55;100.00;103412.75;5146594;23;20061;-79
2023/02/04 04:50:29;;;;;;;5.60;3.90;;;8.60;99.90;;;7.66;100.00;103428.88;5198230;22;20335;-79
2023/02/04 04:52:30;;;;;;;5.93;4.03;;;8.60;99.90;;;7.64;100.00;103419.34;5198631;22;20004;-79
2023/02/04 04:54:31;;;;;;;6.57;4.22;;;8.60;99.90;;;7.63;100.00;103431.63;5171785;23;20008;-79
2023/02/04 04:56:31;;;;;;;5.00;3.28;;;8.50;99.90;;;7.54;100.00;103408.41;5171522;23;20007;-79
2023/02/04 04:58:32;;;;;;;4.25;3.03;;;8.50;99.90;;;7.62;100.00;103426.44;5171797;23;20010;-79
2023/02/04 05:00:33;;;;;;;4.90;3.67;;;8.50;99.90;;;7.59;100.00;103410.81;5171429;23;20034;-79
2023/02/04 05:02:34;;;;;;;4.80;3.50;;;8.50;99.90;;;7.58;100.00;103420.50;5171884;23;20363;-79
2023/02/04 05:04:35;;;;;;;7.35;3.65;;;8.50;99.90;;;7.65;100.00;103421.91;5171895;23;20004;-79
2023/02/04 05:06:36;;;;;;;4.80;3.17;;;8.50;99.90;;;7.59;100.00;103418.69;5198260;22;20379;-79
2023/02/04 05:08:37;;;;;;;4.50;3.30;;;8.50;99.90;;;7.63;100.00;103426.38;5198552;22;20041;-79
2023/02/04 05:10:41;;;;;;;5.63;3.10;;;8.50;99.90;;;7.56;100.00;103419.69;5198383;22;20379;-79
2023/02/04 05:12:42;;;;;;;5.00;3.38;;;8.50;99.90;;;7.55;100.00;103423.28;5198499;22;19999;-79
2023/02/04 05:14:43;;;;;;;7.20;3.50;;;8.50;99.90;;;7.49;100.00;103412.19;5198613;22;20011;-79
2023/02/04 05:16:43;;;;;;;6.47;3.63;;;8.50;99.90;;;7.44;100.00;103404.50;5171600;23;20000;-79
2023/02/04 05:18:44;;;;;;;4.72;3.58;;;8.50;99.90;;;7.48;100.00;103421.84;5171647;23;20000;-79
2023/02/04 05:20:45;;;;;;;5.95;3.63;;;8.40;99.90;;;7.52;100.00;103428.66;5171732;23;20004;-79
2023/02/04 05:22:46;;;;;;;5.13;3.72;;;8.40;99.90;;;7.47;100.00;103430.63;5171536;23;20008;-79
2023/02/04 05:24:47;;;;;;;5.43;3.17;;;8.50;99.90;;;7.47;100.00;103427.16;5198222;22;20065;-79
2023/02/04 05:26:48;;;;;;;5.32;3.50;;;8.40;99.90;;;7.42;100.00;103421.25;5171700;23;20008;-79
2023/02/04 05:28:49;;;;;;;4.70;3.28;;;8.40;99.90;;;7.54;100.00;103442.56;5198425;22;20010;-79
2023/02/04 05:30:50;;;;;;;5.13;3.30;;;8.40;99.90;;;7.55;100.00;103451.31;5171553;23;20345;-79
2023/02/04 05:32:50;;;;;;;7.72;3.28;;;8.40;99.90;;;7.52;100.00;103449.69;5198751;22;20098;-79
2023/02/04 05:34:51;;;;;;;5.43;2.85;;;8.40;99.90;;;7.47;100.00;103443.75;5197991;22;20004;-79
2023/02/04 05:36:52;;;;;;;3.40;2.60;;;8.40;99.90;;;7.42;100.00;103424.75;5170994;23;20067;-79
2023/02/04 05:38:53;;;;;;;5.88;3.03;;;8.30;99.90;;;7.40;100.00;103428.38;5171495;23;20471;-79
2023/02/04 05:40:54;;;;;;;4.53;3.13;;;8.40;99.90;;;7.51;100.00;103447.09;5198473;22;20015;-79
2023/02/04 05:42:55;;;;;;;6.32;3.22;;;8.30;99.90;;;7.50;100.00;103446.25;5198352;22;20004;-79
2023/02/04 05:44:56;;;;;;;4.03;2.70;;;8.30;99.90;;;7.47;100.00;103441.13;5171446;23;20004;-79
2023/02/04 05:46:56;;;;;;;3.45;2.42;;;8.30;99.90;;;7.40;100.00;103421.34;5198272;22;20007;-79
2023/02/04 05:48:57;;;;;;;4.68;2.50;;;8.30;99.90;;;7.51;100.00;103441.84;5171428;23;20332;-79
2023/02/04 05:50:58;;;;;;;5.32;2.60;;;8.30;99.90;;;7.39;100.00;103427.50;5171395;23;20004;-79
2023/02/04 05:52:59;;;;;;;4.25;2.70;;;8.30;99.90;;;7.40;100.00;103433.63;5171977;23;20008;-79
2023/02/04 05:55:00;;;;;;;4.78;2.67;;;8.30;99.90;;;7.36;100.00;103438.16;5171389;23;20007;-79
2023/02/04 05:57:00;;;;;;;4.93;2.25;;;8.30;99.90;;;7.40;100.00;103439.72;5171395;23;20460;-79
2023/02/04 05:59:01;;;;;;;7.35;2.95;;;8.30;99.90;;;7.44;100.00;103453.53;5171424;23;20005;-79
2023/02/04 06:01:03;;;;;;;4.72;2.78;;;8.30;99.90;;;7.38;100.00;103445.97;5198320;22;20152;-79
2023/02/04 06:03:04;;;;;;;4.00;2.72;;;8.30;99.90;;;7.33;100.00;103437.44;5198297;22;20007;-79
2023/02/04 06:05:05;;;;;;;4.70;2.50;;;8.30;99.90;;;7.36;100.00;103448.66;5171535;23;20004;-79
2023/02/04 06:07:06;;;;;;;5.32;2.35;;;8.30;99.90;;;7.45;100.00;103464.00;5146375;23;20104;-79
2023/02/04 06:09:07;;;;;;;4.93;2.60;;;8.30;99.90;;;7.32;100.00;103441.81;5199330;22;20458;-79
2023/02/04 06:11:08;;;;;;;3.95;2.35;;;8.30;99.90;;;7.43;100.00;103446.59;5173261;23;20050;-79
2023/02/04 06:13:09;;;;;;;5.90;2.20;;;8.30;99.90;;;7.37;100.00;103436.38;5173249;23;20000;-79
2023/02/04 06:15:10;;;;;;;3.97;2.17;;;8.30;99.90;;;7.45;100.00;103443.00;5173019;23;20030;-79
2023/02/04 06:17:11;;;;;;;3.03;1.85;;;8.30;99.90;;;7.52;100.00;103456.69;5172893;23;20008;-79
2023/02/04 06:19:12;;;;;;;3.40;1.75;;;8.40;99.90;;;7.46;100.00;103439.44;5172896;23;20031;-79
2023/02/04 06:21:13;;;;;;;5.15;2.42;;;8.40;99.90;;;7.47;100.00;103435.88;5172387;23;20007;-79
2023/02/04 06:23:14;;;;;;;3.10;1.40;;;8.40;99.90;;;7.58;100.00;103448.53;5199779;22;20423;-79
2023/02/04 06:25:15;;;;;;;3.60;1.58;;;8.40;99.90;;;7.48;100.00;103434.97;5172647;23;20019;-79
2023/02/04 06:27:22;;;;;;;3.05;1.85;;;8.40;99.90;;;7.52;100.00;103439.16;5173015;23;20007;-79
2023/02/04 06:29:23;;;;;;;4.18;1.50;;;8.50;99.90;;;7.61;100.00;103446.63;5174231;22;20011;-77
2023/02/04 06:31:23;;;;;;;2.47;1.52;;;8.50;99.90;;;7.66;100.00;103452.50;5147515;23;20092;-77
2023/02/04 06:33:24;;;;;;;4.22;1.67;;;8.50;99.90;;;7.66;100.00;103452.50;5197634;22;20011;-78
2023/02/04 06:35:25;;;;;;;2.90;1.58;;;8.50;99.90;;;7.66;100.00;103452.50;5199322;22;20007;-79
2023/02/04 06:37:26;;;;;;;4.38;1.60;;;8.50;99.90;;;7.57;99.31;103434.53;5172840;23;20004;-79
2023/02/04 06:39:27;;;;;;;2.53;1.52;;;8.50;99.90;;;7.69;99.42;103447.13;5172853;23;20058;-79
2023/02/04 06:41:28;;;;;;;3.28;1.30;;;8.50;99.90;;;7.59;98.38;103432.69;5147367;23;20012;-79
2023/02/04 06:43:29;;;;;;;2.88;1.48;;;8.50;99.90;;;7.56;97.65;103434.59;5173079;23;20008;-79
2023/02/04 06:45:29;;;;;;;4.18;1.75;;;8.50;99.90;;;7.60;97.67;103431.78;5173054;23;20004;-79
2023/02/04 06:47:30;;;;;;;2.40;1.30;;;8.60;99.90;;;7.57;97.31;103425.81;5172787;23;20004;-79
2023/02/04 06:49:31;;;;;;;4.50;1.45;;;8.50;99.90;;;7.58;97.44;103422.28;5199644;22;20004;-79
2023/02/04 06:51:33;;;;;;;1.95;1.15;;;8.50;99.90;;;7.68;96.57;103445.41;5172451;23;20004;-79
2023/02/04 06:53:33;;;;;;;3.03;0.98;;;8.60;99.90;;;7.60;96.09;103420.41;5147337;23;20005;-79
2023/02/04 06:55:34;;;;;;;3.17;1.33;;;8.60;99.90;;;7.70;96.44;103446.19;5170313;23;20060;-82
2023/02/04 06:57:35;;;;;;;3.85;1.17;;;8.60;99.90;;;7.72;96.26;103446.13;5198725;22;20006;-80
2023/02/04 06:59:38;;;;;;;1.45;1.08;;;8.60;99.90;;;7.64;95.89;103435.13;5199082;22;20014;-79
2023/02/04 07:01:39;;;;;;;2.05;1.17;;;8.60;99.90;;;7.72;95.36;103454.00;5172185;22;20008;-79
2023/02/04 07:03:40;;;;;;;1.58;1.00;;;8.60;99.90;;;7.69;95.32;103446.25;5198950;22;20378;-80
2023/02/04 07:05:41;;;;;;;5.00;1.08;;;8.60;99.90;;;7.73;95.32;103446.06;5171682;23;20008;-80
2023/02/04 07:07:41;;;;;;;1.85;0.90;;;8.60;99.90;;;7.73;95.42;103438.19;5198642;22;20003;-80
2023/02/04 07:09:42;;;;;;;1.58;0.85;;;8.60;99.90;;;7.71;94.97;103432.13;5198854;22;20139;-79
2023/02/04 07:11:43;;;;;;;2.35;0.80;;;8.60;99.90;;;7.73;95.05;103434.69;5171918;23;20364;-79
2023/02/04 07:13:44;;;;;;;1.80;0.90;;;8.60;99.90;;;7.72;95.36;103432.97;5171822;23;20035;-79
2023/02/04 07:15:45;;;;;;;1.63;1.02;;;8.60;99.90;;;7.76;94.83;103447.69;5171988;23;20083;-79
2023/02/04 07:17:46;;;;;;;2.17;0.77;;;8.60;99.90;;;7.72;95.14;103443.47;5198954;22;20003;-79
2023/02/04 07:19:47;;;;;;;2.78;1.10;;;8.60;99.90;;;7.73;95.59;103450.44;5198683;22;20015;-79
2023/02/04 07:21:47;;;;;;;2.15;0.50;;;8.60;99.90;;;7.72;94.97;103446.97;5199193;22;20003;-79
2023/02/04 07:23:48;;;;;;;1.80;1.00;;;8.60;99.90;;;7.68;95.45;103450.66;5199307;22;20008;-79
2023/02/04 07:25:52;;;;;;;4.20;1.75;;;8.60;99.90;;;7.70;95.14;103443.56;5149744;23;20013;-79
2023/02/04 07:27:55;;;;;;;3.03;0.93;;;8.60;99.90;;;7.72;94.29;103452.22;5174138;23;20012;-80
2023/02/04 07:29:55;;;;;;;1.40;0.93;;;8.60;99.90;;;7.76;94.36;103447.69;5173622;23;20004;-80
2023/02/04 07:31:56;;;;;;;3.03;0.90;;;8.60;99.90;;;7.76;94.27;103453.75;5147228;23;20055;-80
2023/02/04 07:33:57;;;;;;;1.88;0.65;;;8.60;99.90;;;7.78;94.41;103453.72;5173762;23;20011;-80
2023/02/04 07:35:58;;;;;;;3.33;0.82;;;8.60;99.90;;;7.75;93.50;103441.56;5172006;23;20008;-79
2023/02/04 07:37:59;;;;;;;2.30;1.13;;;8.60;99.90;;;7.80;93.49;103439.56;5173879;23;20004;-79
2023/02/04 07:40:00;;;;;;;4.88;1.00;;;8.70;99.90;;;7.82;93.97;103443.91;5173861;23;20008;-80
2023/02/04 07:42:01;;;;;;;3.33;1.40;;;8.70;99.90;;;7.82;94.37;103453.47;5147274;23;20015;-79
2023/02/04 07:44:02;;;;;;;4.00;2.00;;;8.70;99.90;;;7.81;94.90;103453.56;5173853;23;20008;-79
2023/02/04 07:46:03;;;;;;;2.58;1.20;;;8.60;99.90;;;7.85;94.95;103456.91;5147159;23;20012;-79
2023/02/04 07:48:04;;;;;;;1.73;1.42;;;8.70;99.90;;;7.82;94.55;103454.44;5173800;23;20396;-79
2023/02/04 07:50:05;;;;;;;1.98;1.00;;;8.70;99.90;;;7.82;94.86;103448.22;5172821;23;20015;-79
2023/02/04 07:52:06;;;;;;;3.75;1.80;;;8.70;99.90;;;7.87;94.82;103455.91;5147238;23;20004;-79
2023/02/04 07:54:07;;;;;;;3.65;1.48;;;8.70;99.90;;;7.80;93.28;103443.97;5172079;23;20062;-79
2023/02/04 07:56:08;;;;;;;3.15;1.40;;;8.70;99.90;;;7.89;93.24;103456.69;5173790;23;20343;-79
2023/02/04 07:58:09;;;;;;;3.30;1.55;;;8.70;99.90;;;7.91;93.81;103456.63;5122054;23;20012;-79
2023/02/04 08:00:12;;;;;;;2.00;1.33;;;8.70;99.90;;;7.91;94.64;103457.47;5147070;23;20008;-80
2023/02/04 08:02:14;;;;;;;4.90;1.20;;;8.80;99.90;;;7.90;95.09;103461.03;5146897;23;20012;-79
2023/02/04 08:04:15;;;;;;;5.68;2.50;;;8.80;99.90;;;7.88;95.17;103462.03;5173640;23;20375;-79
2023/02/04 08:06:16;;;;;;;5.85;1.67;;;8.80;99.90;;;7.87;94.66;103461.16;5146648;23;20012;-80
2023/02/04 08:08:16;;;;;;;1.85;1.10;;;8.80;99.90;;;7.89;94.84;103461.94;5173664;23;20343;-80
2023/02/04 08:10:17;;;;;;;3.67;1.17;;;8.80;99.90;;;7.91;94.90;103456.63;5146974;23;20012;-80
2023/02/04 08:12:18;;;;;;;2.95;1.10;;;8.80;99.90;;;7.93;95.49;103460.00;5147018;23;20060;-79
2023/02/04 08:14:19;;;;;;;2.28;1.20;;;8.80;99.90;;;7.90;95.66;103462.78;5173132;23;20004;-80
2023/02/04 08:16:20;;;;;;;3.25;0.90;;;8.80;99.90;;;7.91;96.21;103461.88;5147200;23;20004;-81
2023/02/04 08:18:23;;;;;;;3.13;1.90;;;8.70;99.90;;;7.85;96.99;103454.28;5121855;23;20473;-81
2023/02/04 08:20:24;;;;;;;2.33;1.50;;;8.80;99.90;;;7.87;97.26;103465.56;5146963;23;20074;-81
2023/02/04 08:22:25;;;;;;;2.85;1.42;;;8.80;99.90;;;7.85;96.67;103449.03;5173400;23;20440;-80
2023/02/04 08:24:26;;;;;;;2.63;1.40;;;8.80;99.90;;;7.97;96.65;103462.44;5146210;23;20017;-80
2023/02/04 08:26:27;;;;;;;3.30;1.80;;;8.90;99.90;;;8.09;95.95;103477.63;5173525;23;20011;-80
2023/02/04 08:28:28;;;;;;;2.45;1.27;;;8.90;99.90;;;8.06;95.25;103466.41;5173486;23;20008;-80
2023/02/04 08:30:28;;;;;;;4.95;1.70;;;8.90;99.90;;;8.08;94.62;103461.91;5146727;23;20009;-79